createdAt,value
2018-05-08T00:01:29.195Z,1.83
2018-05-08T00:04:03.716Z,1.37
2018-05-08T00:06:38.141Z,3.77
2018-05-08T00:09:12.578Z,2.57
2018-05-08T00:11:47.003Z,1.87
2018-05-08T00:14:21.284Z,1.83
2018-05-08T00:16:55.628Z,1.07
2018-05-08T00:19:29.961Z,1.93
2018-05-08T00:22:04.380Z,1.40
2018-05-08T00:24:38.840Z,1.20
2018-05-08T00:27:13.153Z,1.40
2018-05-08T00:29:47.610Z,2.10
2018-05-08T00:32:22.027Z,1.87
2018-05-08T00:34:56.427Z,1.20
2018-05-08T00:37:30.895Z,1.17
2018-05-08T00:40:05.227Z,1.80
2018-05-08T00:42:39.626Z,2.07
2018-05-08T00:45:14.131Z,2.67
2018-05-08T00:47:48.621Z,1.83
2018-05-08T00:50:23.888Z,1.60
2018-05-08T00:52:58.195Z,1.30
2018-05-08T00:55:32.626Z,1.53
2018-05-08T00:58:07.070Z,1.60
2018-05-08T01:00:41.562Z,3.03
2018-05-08T01:03:15.892Z,1.97
2018-05-08T01:05:51.142Z,1.90
2018-05-08T01:08:25.484Z,1.30
2018-05-08T01:10:59.890Z,1.33
2018-05-08T01:13:34.309Z,1.33
2018-05-08T01:16:08.634Z,3.30
2018-05-08T01:18:42.937Z,1.20
2018-05-08T01:21:18.025Z,1.97
2018-05-08T01:23:52.460Z,1.43
2018-05-08T01:26:26.870Z,2.30
2018-05-08T01:29:02.040Z,1.50
2018-05-08T01:31:36.452Z,1.30
2018-05-08T01:34:10.788Z,2.07
2018-05-08T01:36:45.276Z,1.60
2018-05-08T01:39:19.651Z,1.33
2018-05-08T01:41:54.075Z,1.37
2018-05-08T01:44:28.450Z,1.40
2018-05-08T01:47:02.785Z,3.00
2018-05-08T01:49:37.285Z,1.43
2018-05-08T01:52:11.650Z,3.33
2018-05-08T01:54:45.945Z,1.33
2018-05-08T01:57:20.357Z,1.67
2018-05-08T01:59:54.699Z,1.37
2018-05-08T02:02:28.984Z,1.53
2018-05-08T02:05:03.348Z,1.30
2018-05-08T02:07:38.570Z,2.03
2018-05-08T02:10:13.007Z,2.03
2018-05-08T02:12:47.277Z,1.50
2018-05-08T02:15:21.610Z,1.33
2018-05-08T02:17:55.917Z,2.00
2018-05-08T02:20:30.348Z,1.37
2018-05-08T02:23:05.072Z,1.90
2018-05-08T02:25:39.382Z,2.13
2018-05-08T02:28:13.761Z,2.07
2018-05-08T02:30:48.240Z,1.50
2018-05-08T02:33:22.672Z,2.20
2018-05-08T02:35:57.294Z,1.40
2018-05-08T02:38:32.411Z,1.60
2018-05-08T02:41:07.050Z,1.77
2018-05-08T02:43:41.474Z,2.00
2018-05-08T02:46:16.084Z,3.30
2018-05-08T02:48:50.717Z,1.67
2018-05-08T02:51:25.013Z,5.73
2018-05-08T02:53:59.443Z,1.70
2018-05-08T02:56:33.757Z,1.23
2018-05-08T02:59:08.254Z,1.40
2018-05-08T03:01:42.518Z,2.50
2018-05-08T03:04:16.908Z,1.80
2018-05-08T03:06:51.259Z,1.80
2018-05-08T03:09:25.572Z,3.13
2018-05-08T03:11:59.993Z,1.33
2018-05-08T03:14:34.326Z,2.17
2018-05-08T03:17:10.257Z,1.73
2018-05-08T03:19:44.729Z,2.30
2018-05-08T03:22:19.280Z,1.77
2018-05-08T03:24:53.621Z,2.23
2018-05-08T03:27:28.007Z,1.73
2018-05-08T03:30:02.342Z,3.30
2018-05-08T03:32:36.893Z,3.20
2018-05-08T03:35:11.230Z,3.77
2018-05-08T03:37:45.840Z,1.73
2018-05-08T03:40:20.104Z,2.03
2018-05-08T03:42:54.541Z,1.67
2018-05-08T03:45:28.858Z,1.73
2018-05-08T03:48:03.192Z,4.13
2018-05-08T03:50:37.500Z,1.57
2018-05-08T03:53:11.765Z,1.47
2018-05-08T03:55:46.152Z,1.67
2018-05-08T03:58:20.558Z,1.83
2018-05-08T04:01:06.840Z,3.33
2018-05-08T04:03:54.117Z,2.40
2018-05-08T04:06:55.360Z,1.50
2018-05-08T04:09:29.770Z,2.17
2018-05-08T04:12:04.070Z,3.50
2018-05-08T04:14:38.399Z,2.30
2018-05-08T04:17:12.713Z,1.73
2018-05-08T04:19:47.094Z,1.97
2018-05-08T04:22:21.580Z,2.23
2018-05-08T04:24:55.998Z,1.80
2018-05-08T04:27:30.520Z,3.17
2018-05-08T04:30:04.785Z,2.70
2018-05-08T04:32:39.198Z,1.80
2018-05-08T04:35:14.421Z,2.23
2018-05-08T04:37:49.029Z,1.63
2018-05-08T04:40:23.318Z,1.90
2018-05-08T04:42:57.662Z,2.93
2018-05-08T04:45:32.173Z,3.23
2018-05-08T04:48:06.585Z,3.03
2018-05-08T04:50:40.898Z,2.13
2018-05-08T04:53:15.330Z,2.40
2018-05-08T04:55:49.940Z,4.20
2018-05-08T04:58:24.347Z,2.73
2018-05-08T05:00:59.509Z,1.30
2018-05-08T05:03:34.028Z,1.83
2018-05-08T05:06:08.446Z,2.00
2018-05-08T05:08:42.865Z,1.97
2018-05-08T05:11:17.626Z,2.40
2018-05-08T05:13:52.113Z,1.30
2018-05-08T05:16:26.444Z,1.70
2018-05-08T05:19:00.721Z,2.50
2018-05-08T05:21:35.066Z,2.20
2018-05-08T05:24:09.399Z,1.67
2018-05-08T05:26:43.729Z,2.00
2018-05-08T05:29:18.321Z,2.53
2018-05-08T05:31:52.713Z,3.50
2018-05-08T05:34:27.028Z,1.40
2018-05-08T05:37:01.648Z,1.80
2018-05-08T05:39:35.999Z,2.27
2018-05-08T05:42:11.774Z,2.87
2018-05-08T05:44:46.900Z,2.50
2018-05-08T05:47:21.452Z,3.33
2018-05-08T05:49:55.840Z,3.97
2018-05-08T05:52:30.390Z,2.37
2018-05-08T05:55:04.805Z,2.00
2018-05-08T05:57:39.444Z,2.03
2018-05-08T06:00:13.848Z,2.63
2018-05-08T06:02:48.877Z,5.40
2018-05-08T06:05:23.343Z,5.47
2018-05-08T06:07:57.824Z,9.77
2018-05-08T06:10:32.321Z,7.63
2018-05-08T06:13:06.868Z,3.63
2018-05-08T06:15:41.176Z,4.90
2018-05-08T06:18:15.495Z,5.60
2018-05-08T06:20:49.937Z,7.17
2018-05-08T06:23:24.344Z,5.03
2018-05-08T06:25:58.795Z,5.33
2018-05-08T06:28:33.645Z,5.57
2018-05-08T06:31:08.042Z,4.27
2018-05-08T06:33:43.165Z,6.00
2018-05-08T06:36:17.569Z,9.30
2018-05-08T06:38:52.034Z,10.20
2018-05-08T06:41:26.316Z,11.40
2018-05-08T06:44:00.649Z,7.57
2018-05-08T06:46:34.956Z,9.20
2018-05-08T06:49:09.511Z,4.23
2018-05-08T06:51:43.979Z,5.03
2018-05-08T06:54:18.506Z,5.23
2018-05-08T06:56:52.818Z,5.20
2018-05-08T06:59:27.293Z,7.87
2018-05-08T07:02:01.657Z,6.83
2018-05-08T07:04:36.017Z,6.30
2018-05-08T07:07:10.301Z,4.07
2018-05-08T07:09:44.552Z,7.07
2018-05-08T07:12:18.941Z,3.43
2018-05-08T07:14:53.266Z,4.43
2018-05-08T07:17:27.591Z,4.47
2018-05-08T07:20:02.129Z,4.83
2018-05-08T07:22:36.453Z,5.90
2018-05-08T07:25:10.797Z,4.97
2018-05-08T07:27:45.234Z,7.10
2018-05-08T07:30:19.720Z,10.43
2018-05-08T07:32:54.332Z,7.10
2018-05-08T07:35:28.980Z,7.03
2018-05-08T07:38:03.382Z,5.97
2018-05-08T07:40:37.708Z,12.40
2018-05-08T07:43:12.085Z,7.20
2018-05-08T07:45:46.417Z,7.50
2018-05-08T07:48:20.891Z,6.27
2018-05-08T07:50:55.292Z,11.20
2018-05-08T07:53:29.685Z,8.33
2018-05-08T07:56:03.985Z,10.13
2018-05-08T07:58:38.256Z,6.43
2018-05-08T08:01:12.676Z,11.60
2018-05-08T08:03:48.000Z,6.77
2018-05-08T08:06:22.452Z,7.37
2018-05-08T08:08:57.636Z,7.73
2018-05-08T08:11:31.957Z,27.10
2018-05-08T08:14:06.402Z,8.20
2018-05-08T08:16:40.806Z,7.50
2018-05-08T08:19:15.144Z,5.73
2018-05-08T08:21:49.678Z,7.63
2018-05-08T08:24:24.031Z,6.57
2018-05-08T08:26:59.102Z,7.40
2018-05-08T08:29:33.653Z,7.87
2018-05-08T08:32:08.064Z,4.90
2018-05-08T08:34:42.478Z,4.97
2018-05-08T08:37:18.242Z,4.67
2018-05-08T08:39:52.774Z,6.27
2018-05-08T08:42:27.194Z,6.80
2018-05-08T08:45:01.606Z,7.27
2018-05-08T08:47:36.020Z,5.73
2018-05-08T08:50:10.311Z,8.77
2018-05-08T08:52:44.675Z,7.67
2018-05-08T09:20:31.309Z,3.33
2018-05-08T09:23:06.291Z,3.37
2018-05-08T09:25:40.558Z,5.77
2018-05-08T09:28:14.919Z,3.10
2018-05-08T09:30:49.337Z,5.87
2018-05-08T09:33:23.684Z,4.57
2018-05-08T09:35:58.867Z,5.13
2018-05-08T09:38:33.304Z,3.57
2018-05-08T09:41:11.457Z,4.10
2018-05-08T09:43:45.845Z,4.20
2018-05-08T09:46:20.945Z,4.13
2018-05-08T09:51:35.652Z,3.33
2018-05-08T09:54:10.813Z,3.27
2018-05-08T09:56:45.224Z,4.27
2018-05-08T09:59:20.378Z,5.30
2018-05-08T10:01:54.667Z,2.50
2018-05-08T10:04:28.968Z,2.80
2018-05-08T10:07:03.509Z,3.73
2018-05-08T10:09:38.019Z,5.10
2018-05-08T10:12:12.413Z,4.90
2018-05-08T10:14:46.745Z,2.67
2018-05-08T10:17:21.269Z,2.80
2018-05-08T10:19:55.729Z,3.23
2018-05-08T10:22:30.229Z,3.00
2018-05-08T10:25:04.645Z,2.43
2018-05-08T10:27:39.146Z,5.73
2018-05-08T10:30:13.618Z,3.10
2018-05-08T10:32:47.939Z,3.03
2018-05-08T10:35:23.240Z,5.27
2018-05-08T10:37:57.725Z,2.17
2018-05-08T10:40:32.071Z,3.37
2018-05-08T10:43:09.793Z,5.60
2018-05-08T10:45:44.912Z,2.57
2018-05-08T10:48:19.398Z,3.83
2018-05-08T10:50:53.687Z,3.77
2018-05-08T10:53:29.026Z,2.77
2018-05-08T10:56:03.408Z,2.33
2018-05-08T10:58:37.776Z,3.20
2018-05-08T11:01:13.406Z,1.70
2018-05-08T11:03:47.693Z,3.23
2018-05-08T11:06:22.094Z,3.20
2018-05-08T11:08:56.427Z,4.20
2018-05-08T11:11:30.876Z,1.87
2018-05-08T11:14:05.505Z,5.10
2018-05-08T11:16:39.933Z,4.77
2018-05-08T11:19:14.558Z,4.80
2018-05-08T11:21:48.850Z,2.10
2018-05-08T11:24:23.885Z,3.27
2018-05-08T11:26:58.531Z,2.07
2018-05-08T11:29:32.864Z,2.97
2018-05-08T11:32:07.134Z,1.60
2018-05-08T11:34:41.473Z,1.93
2018-05-08T11:37:15.824Z,1.40
2018-05-08T11:39:50.278Z,2.83
2018-05-08T11:42:24.764Z,2.90
2018-05-08T11:44:59.225Z,2.30
2018-05-08T11:47:33.645Z,2.23
2018-05-08T11:50:08.156Z,2.37
2018-05-08T11:52:42.428Z,5.47
2018-05-08T11:55:16.758Z,2.83
2018-05-08T11:57:51.384Z,2.33
2018-05-08T12:00:25.684Z,3.63
2018-05-08T12:03:01.653Z,2.80
2018-05-08T12:05:36.144Z,2.53
2018-05-08T12:08:10.457Z,2.47
2018-05-08T12:10:44.918Z,3.30
2018-05-08T12:13:19.251Z,2.33
2018-05-08T12:15:53.572Z,6.77
2018-05-08T12:18:27.976Z,4.67
2018-05-08T12:21:02.388Z,5.57
2018-05-08T12:23:36.734Z,7.97
2018-05-08T12:26:11.139Z,7.47
2018-05-08T12:28:45.483Z,8.67
2018-05-08T12:31:19.852Z,7.50
2018-05-08T12:33:54.305Z,9.23
2018-05-08T12:36:28.745Z,7.87
2018-05-08T12:39:03.210Z,10.87
2018-05-08T12:41:37.536Z,8.33
2018-05-08T12:44:12.188Z,5.53
2018-05-08T12:46:46.489Z,3.33
2018-05-08T12:49:20.784Z,8.53
2018-05-08T12:51:55.142Z,8.33
2018-05-08T12:54:30.217Z,6.43
2018-05-08T12:57:04.697Z,7.30
2018-05-08T12:59:39.203Z,5.90
2018-05-08T13:02:13.534Z,5.87
2018-05-08T13:04:47.924Z,5.70
2018-05-08T13:07:22.324Z,5.10
2018-05-08T13:09:56.765Z,5.47
2018-05-08T13:12:31.130Z,3.67
2018-05-08T13:15:05.435Z,4.33
2018-05-08T13:17:39.820Z,3.70
2018-05-08T13:20:14.121Z,4.70
2018-05-08T13:22:48.465Z,3.27
2018-05-08T13:25:22.983Z,2.70
2018-05-08T13:27:57.424Z,1.90
2018-05-08T13:30:31.857Z,4.33
2018-05-08T13:33:06.268Z,4.03
2018-05-08T13:35:40.581Z,3.30
2018-05-08T13:38:15.706Z,2.77
2018-05-08T13:40:50.142Z,2.43
2018-05-08T13:43:24.680Z,5.20
2018-05-08T13:45:59.005Z,3.60
2018-05-08T13:48:33.630Z,3.70
2018-05-08T13:51:08.258Z,3.90
2018-05-08T13:53:42.878Z,4.03
2018-05-08T13:56:17.193Z,2.67
2018-05-08T13:58:51.616Z,5.23
2018-05-08T14:01:25.985Z,2.27
2018-05-08T14:04:00.386Z,3.20
2018-05-08T14:06:35.656Z,3.03
2018-05-08T14:09:09.850Z,3.07
2018-05-08T14:11:44.222Z,2.20
2018-05-08T14:14:18.585Z,4.47
2018-05-08T14:16:53.035Z,2.70
2018-05-08T14:19:27.442Z,2.60
2018-05-08T14:22:01.741Z,4.83
2018-05-08T14:24:36.233Z,2.43
2018-05-08T14:27:10.540Z,2.90
2018-05-08T14:29:44.929Z,4.00
2018-05-08T14:32:19.365Z,1.57
2018-05-08T14:34:53.809Z,1.50
2018-05-08T14:37:28.208Z,4.17
2018-05-08T14:40:03.335Z,2.60
2018-05-08T14:42:37.635Z,2.77
2018-05-08T14:45:12.127Z,4.97
2018-05-08T14:47:47.317Z,2.77
2018-05-08T14:50:21.681Z,3.27
2018-05-08T14:52:56.002Z,3.80
2018-05-08T14:55:30.321Z,3.23
2018-05-08T14:58:04.585Z,6.03
2018-05-08T15:00:39.157Z,5.33
2018-05-08T15:03:13.570Z,2.63
2018-05-08T15:05:48.410Z,4.10
2018-05-08T15:08:22.696Z,2.43
2018-05-08T15:10:57.002Z,2.20
2018-05-08T15:13:31.323Z,3.77
2018-05-08T15:16:05.676Z,7.30
2018-05-08T15:18:40.053Z,3.10
2018-05-08T15:21:14.413Z,3.50
2018-05-08T15:23:48.809Z,5.43
2018-05-08T15:26:24.042Z,2.47
2018-05-08T15:28:58.469Z,3.70
2018-05-08T15:31:32.745Z,2.40
2018-05-08T15:34:07.085Z,2.33
2018-05-08T15:36:41.417Z,2.97
2018-05-08T15:39:16.578Z,4.47
2018-05-08T15:41:50.891Z,2.07
2018-05-08T15:44:26.135Z,2.93
2018-05-08T15:47:00.544Z,1.83
2018-05-08T15:49:34.993Z,2.73
2018-05-08T15:52:09.289Z,2.10
2018-05-08T15:54:43.601Z,2.30
2018-05-08T15:57:17.933Z,2.33
2018-05-08T15:59:52.328Z,2.33
2018-05-08T16:02:26.653Z,2.10
2018-05-08T16:05:00.950Z,1.50
2018-05-08T16:07:35.274Z,2.00
2018-05-08T16:10:09.606Z,2.70
2018-05-08T16:12:44.219Z,2.33
2018-05-08T16:15:18.764Z,1.60
2018-05-08T16:17:53.064Z,4.23
2018-05-08T16:20:28.285Z,3.00
2018-05-08T16:23:02.726Z,2.20
2018-05-08T16:25:37.173Z,3.07
2018-05-08T16:28:12.211Z,2.60
2018-05-08T16:30:46.489Z,1.80
2018-05-08T16:33:21.079Z,2.00
2018-05-08T16:35:55.469Z,2.20
2018-05-08T16:38:29.804Z,2.43
2018-05-08T16:41:04.906Z,4.30
2018-05-08T16:43:40.060Z,6.30
2018-05-08T16:46:14.403Z,5.97
2018-05-08T16:48:48.785Z,4.93
2018-05-08T16:51:23.278Z,3.60
2018-05-08T16:53:57.731Z,4.67
2018-05-08T16:56:32.069Z,4.10
2018-05-08T16:59:06.560Z,3.20
2018-05-08T17:01:40.975Z,1.87
2018-05-08T17:04:16.224Z,4.93
2018-05-08T17:06:50.596Z,1.93
2018-05-08T17:09:24.867Z,2.07
2018-05-08T17:11:59.268Z,2.33
2018-05-08T17:14:33.708Z,2.43
2018-05-08T17:17:08.245Z,2.83
2018-05-08T17:19:42.633Z,3.27
2018-05-08T17:22:17.013Z,2.07
2018-05-08T17:24:51.333Z,2.00
2018-05-08T17:27:25.824Z,3.03
2018-05-08T17:30:00.864Z,2.77
2018-05-08T17:32:35.310Z,1.80
2018-05-08T17:35:09.856Z,4.30
2018-05-08T17:37:44.212Z,2.87
2018-05-08T17:40:18.548Z,1.53
2018-05-08T17:42:52.968Z,1.97
2018-05-08T17:45:27.485Z,2.60
2018-05-08T17:48:01.716Z,4.13
2018-05-08T17:50:36.176Z,2.13
2018-05-08T17:53:10.631Z,7.67
2018-05-08T17:55:45.204Z,1.97
2018-05-08T17:58:19.709Z,2.00
2018-05-08T18:00:54.145Z,3.27
2018-05-08T18:03:28.481Z,3.20
2018-05-08T18:06:02.848Z,5.47
2018-05-08T18:08:37.142Z,3.23
2018-05-08T18:11:11.509Z,1.40
2018-05-08T18:13:46.021Z,1.67
2018-05-08T18:16:20.421Z,2.03
2018-05-08T18:18:54.870Z,2.70
2018-05-08T18:21:29.304Z,2.43
2018-05-08T18:24:03.597Z,3.37
2018-05-08T18:26:39.448Z,2.17
2018-05-08T18:29:13.984Z,3.33
2018-05-08T18:31:48.369Z,2.17
2018-05-08T18:34:23.082Z,1.57
2018-05-08T18:36:58.160Z,3.63
2018-05-08T18:39:33.504Z,3.00
2018-05-08T18:42:07.943Z,3.50
2018-05-08T18:44:42.455Z,1.97
2018-05-08T18:47:16.846Z,3.17
2018-05-08T18:49:51.264Z,2.17
2018-05-08T18:52:25.799Z,2.93
2018-05-08T18:55:00.232Z,1.70
2018-05-08T18:57:34.662Z,3.63
2018-05-08T19:00:14.690Z,2.33
2018-05-08T19:02:50.163Z,3.77
2018-05-08T19:05:24.461Z,2.37
2018-05-08T19:07:59.536Z,2.37
2018-05-08T19:10:34.033Z,4.23
2018-05-08T19:13:08.341Z,2.57
2018-05-08T19:15:48.312Z,3.80
2018-05-08T19:18:28.449Z,3.70
2018-05-08T19:21:02.830Z,2.20
2018-05-08T19:23:37.117Z,2.80
2018-05-08T19:26:11.646Z,4.00
2018-05-08T19:28:51.865Z,4.67
2018-05-08T19:31:27.094Z,3.10
2018-05-08T19:34:01.514Z,3.10
2018-05-08T19:36:41.702Z,2.97
2018-05-08T19:39:16.153Z,3.13
2018-05-08T19:41:50.340Z,2.53
2018-05-08T19:44:24.709Z,4.93
2018-05-08T19:46:59.132Z,2.80
2018-05-08T19:49:34.193Z,2.20
2018-05-08T19:52:08.561Z,2.90
2018-05-08T19:54:42.958Z,2.27
2018-05-08T19:57:17.370Z,2.57
2018-05-08T19:59:51.754Z,2.53
2018-05-08T20:02:26.207Z,9.60
2018-05-08T20:05:00.465Z,1.97
2018-05-08T20:07:34.748Z,3.60
2018-05-08T20:10:09.160Z,3.20
2018-05-08T20:12:43.504Z,2.87
2018-05-08T20:15:17.749Z,1.90
2018-05-08T20:17:52.011Z,2.30
2018-05-08T20:20:26.402Z,3.90
2018-05-08T20:23:00.734Z,2.67
2018-05-08T20:25:35.166Z,1.30
2018-05-08T20:28:09.533Z,5.87
2018-05-08T20:30:43.930Z,3.27
2018-05-08T20:33:18.426Z,3.43
2018-05-08T20:35:52.844Z,4.57
2018-05-08T20:38:27.133Z,2.67
2018-05-08T20:41:02.300Z,2.03
2018-05-08T20:43:36.930Z,3.17
2018-05-08T20:46:11.162Z,2.83
2018-05-08T20:48:45.696Z,2.57
2018-05-08T20:51:20.224Z,1.97
2018-05-08T20:53:54.631Z,2.10
2018-05-08T20:56:28.920Z,3.13
2018-05-08T20:59:03.240Z,4.50
2018-05-08T21:01:37.601Z,2.27
2018-05-08T21:04:12.008Z,5.00
2018-05-08T21:06:47.249Z,1.53
2018-05-08T21:09:21.667Z,1.97
2018-05-08T21:11:56.100Z,2.60
2018-05-08T21:14:30.411Z,2.77
2018-05-08T21:17:04.928Z,1.80
2018-05-08T21:19:39.384Z,2.37
2018-05-08T21:22:13.727Z,1.50
2018-05-08T21:24:48.153Z,1.40
2018-05-08T21:27:22.516Z,1.93
2018-05-08T21:30:02.581Z,4.43
2018-05-08T21:32:36.968Z,2.07
2018-05-08T21:35:11.423Z,2.30
2018-05-08T21:37:45.870Z,1.37
2018-05-08T21:40:20.531Z,1.87
2018-05-08T21:42:55.593Z,1.60
2018-05-08T21:45:29.984Z,1.47
2018-05-08T21:48:04.451Z,1.47
2018-05-08T21:50:38.749Z,1.30
2018-05-08T21:53:13.074Z,1.93
2018-05-08T21:55:47.511Z,2.90
2018-05-08T21:58:21.952Z,3.00
2018-05-08T22:00:56.229Z,1.60
2018-05-08T22:03:30.626Z,1.50
2018-05-08T22:06:05.901Z,1.90
2018-05-08T22:08:40.326Z,3.53
2018-05-08T22:11:15.526Z,2.73
2018-05-08T22:13:50.046Z,2.53
2018-05-08T22:16:24.398Z,2.57
2018-05-08T22:18:58.715Z,2.83
2018-05-08T22:21:33.154Z,3.40
2018-05-08T22:24:07.773Z,4.20
2018-05-08T22:26:42.173Z,1.50
2018-05-08T22:29:16.666Z,1.43
2018-05-08T22:31:51.022Z,1.67
2018-05-08T22:34:25.604Z,4.63
2018-05-08T22:37:01.155Z,2.60
2018-05-08T22:39:35.721Z,4.13
2018-05-08T22:42:10.004Z,2.03
2018-05-08T22:44:44.485Z,1.70
2018-05-08T22:47:18.951Z,1.93
2018-05-08T22:49:53.429Z,1.93
2018-05-08T22:52:27.702Z,1.40
2018-05-08T22:55:02.194Z,3.37
2018-05-08T22:57:36.629Z,2.30
2018-05-08T23:00:11.120Z,1.70
2018-05-08T23:02:46.190Z,1.73
2018-05-08T23:05:20.634Z,2.47
2018-05-08T23:07:55.063Z,3.57
2018-05-08T23:10:30.287Z,2.00
2018-05-08T23:13:04.704Z,1.33
2018-05-08T23:15:39.026Z,2.63
2018-05-08T23:18:13.356Z,1.70
2018-05-08T23:20:47.891Z,2.83
2018-05-08T23:23:22.200Z,1.87
2018-05-08T23:25:56.549Z,1.57
2018-05-08T23:28:31.029Z,2.63
2018-05-08T23:31:05.328Z,2.73
2018-05-08T23:33:39.675Z,2.30
2018-05-08T23:36:14.081Z,2.60
2018-05-08T23:38:49.224Z,2.03
2018-05-08T23:41:23.557Z,2.20
2018-05-08T23:43:57.882Z,2.37
2018-05-08T23:46:32.302Z,1.80
2018-05-08T23:49:06.581Z,2.33
2018-05-08T23:51:40.937Z,1.97
2018-05-08T23:54:15.230Z,2.37
2018-05-08T23:56:49.630Z,4.40
2018-05-08T23:59:24.094Z,1.87
